createdAt,value
2018-05-29T00:00:27.945Z,13.90
2018-05-29T00:02:54.275Z,13.47
2018-05-29T00:05:20.679Z,13.83
2018-05-29T00:07:48.649Z,13.80
2018-05-29T00:10:14.973Z,13.37
2018-05-29T00:12:42.186Z,13.83
2018-05-29T00:15:09.368Z,14.17
2018-05-29T00:17:35.844Z,15.33
2018-05-29T00:20:02.190Z,14.77
2018-05-29T00:22:28.540Z,14.83
2018-05-29T00:24:54.935Z,14.67
2018-05-29T00:27:23.043Z,15.07
2018-05-29T00:29:49.394Z,14.77
2018-05-29T00:32:15.754Z,16.27
2018-05-29T00:34:42.884Z,14.87
2018-05-29T00:37:09.282Z,14.47
2018-05-29T00:39:35.681Z,14.03
2018-05-29T00:42:02.358Z,15.03
2018-05-29T00:44:30.216Z,14.80
2018-05-29T00:46:56.634Z,14.37
2018-05-29T00:49:23.020Z,15.23
2018-05-29T00:51:49.326Z,14.73
2018-05-29T00:54:18.684Z,15.17
2018-05-29T00:56:46.679Z,14.40
2018-05-29T00:59:13.824Z,15.30
2018-05-29T01:01:40.150Z,14.23
2018-05-29T01:04:06.517Z,15.73
2018-05-29T01:06:33.572Z,15.37
2018-05-29T01:08:59.998Z,15.83
2018-05-29T01:11:28.311Z,14.90
2018-05-29T01:13:54.649Z,15.67
2018-05-29T01:16:21.104Z,15.23
2018-05-29T01:18:48.423Z,17.10
2018-05-29T01:30:59.833Z,16.50
2018-05-29T01:33:27.243Z,15.70
2018-05-29T01:35:54.447Z,14.57
2018-05-29T01:38:20.832Z,15.87
2018-05-29T01:40:47.299Z,15.43
2018-05-29T01:43:14.418Z,16.07
2018-05-29T01:45:40.734Z,16.47
2018-05-29T01:48:10.087Z,15.00
2018-05-29T01:50:37.453Z,15.53
2018-05-29T01:53:04.817Z,16.77
2018-05-29T01:55:31.191Z,16.27
2018-05-29T01:57:58.210Z,15.37
2018-05-29T02:00:25.021Z,15.07
2018-05-29T02:02:52.861Z,15.73
2018-05-29T02:05:20.029Z,15.70
2018-05-29T02:07:46.377Z,16.10
2018-05-29T02:10:13.519Z,16.73
2018-05-29T02:12:39.855Z,16.87
2018-05-29T02:15:07.223Z,15.57
2018-05-29T02:17:33.582Z,15.33
2018-05-29T02:19:59.925Z,16.87
2018-05-29T02:22:26.563Z,16.20
2018-05-29T02:34:37.933Z,16.07
2018-05-29T02:37:04.315Z,16.33
2018-05-29T02:49:17.431Z,17.00
2018-05-29T02:51:44.411Z,17.33
2018-05-29T02:54:11.731Z,17.20
2018-05-29T02:56:38.103Z,16.50
2018-05-29T03:08:45.466Z,16.07
2018-05-29T03:11:11.854Z,18.47
2018-05-29T03:13:39.944Z,16.33
2018-05-29T03:16:07.120Z,15.73
2018-05-29T03:18:33.505Z,16.13
2018-05-29T03:21:00.800Z,16.27
2018-05-29T03:23:27.154Z,16.20
2018-05-29T03:25:53.503Z,15.33
2018-05-29T03:28:19.870Z,16.03
2018-05-29T03:30:46.304Z,15.40
2018-05-29T03:33:12.653Z,15.17
2018-05-29T03:35:39.311Z,15.07
2018-05-29T03:38:05.713Z,15.77
2018-05-29T03:40:32.901Z,16.53
2018-05-29T03:42:59.975Z,15.80
2018-05-29T03:45:27.135Z,16.53
2018-05-29T03:57:38.514Z,15.17
2018-05-29T04:00:04.921Z,15.30
2018-05-29T04:02:31.971Z,19.17
2018-05-29T04:04:59.195Z,19.03
2018-05-29T04:17:11.307Z,18.20
2018-05-29T04:19:37.681Z,16.97
2018-05-29T04:22:04.831Z,20.93
2018-05-29T04:24:31.175Z,17.60
2018-05-29T04:26:58.288Z,17.30
2018-05-29T04:29:24.637Z,18.17
2018-05-29T04:31:52.381Z,18.43
2018-05-29T04:34:19.647Z,19.27
2018-05-29T04:36:46.025Z,19.70
2018-05-29T04:48:52.493Z,23.27
2018-05-29T05:00:59.803Z,24.83
2018-05-29T05:03:26.083Z,27.90
2018-05-29T05:05:53.106Z,26.43
2018-05-29T05:08:19.516Z,27.73
2018-05-29T05:10:46.515Z,28.73
2018-05-29T05:13:12.791Z,29.30
2018-05-29T05:15:39.065Z,28.83
2018-05-29T05:18:05.381Z,29.60
2018-05-29T05:20:31.678Z,30.87
2018-05-29T05:22:58.711Z,30.97
2018-05-29T05:25:24.983Z,30.03
2018-05-29T05:27:51.270Z,32.37
2018-05-29T05:30:17.574Z,32.33
2018-05-29T05:32:43.867Z,33.73
2018-05-29T05:35:10.148Z,34.17
2018-05-29T05:37:36.447Z,36.07
2018-05-29T05:40:02.757Z,36.97
2018-05-29T05:42:29.031Z,35.97
2018-05-29T05:44:55.313Z,36.83
2018-05-29T05:47:21.577Z,39.27
2018-05-29T05:49:47.855Z,39.87
2018-05-29T05:52:14.885Z,40.63
2018-05-29T05:54:41.187Z,42.20
2018-05-29T05:57:07.461Z,41.97
2018-05-29T05:59:34.508Z,40.57
2018-05-29T06:02:00.798Z,42.27
2018-05-29T06:04:27.061Z,40.00
2018-05-29T06:06:54.101Z,43.27
2018-05-29T06:09:21.130Z,40.07
2018-05-29T06:11:47.407Z,40.57
2018-05-29T06:14:13.701Z,41.40
2018-05-29T06:16:39.991Z,40.77
2018-05-29T06:19:06.276Z,40.27
2018-05-29T06:21:33.313Z,40.23
2018-05-29T06:23:59.609Z,38.63
2018-05-29T06:26:25.896Z,37.10
2018-05-29T06:28:52.919Z,35.40
2018-05-29T06:31:19.201Z,60.00
2018-05-29T06:33:45.507Z,35.53
2018-05-29T06:36:12.564Z,35.07
2018-05-29T06:38:38.923Z,35.57
2018-05-29T06:41:05.227Z,35.30
2018-05-29T06:43:31.535Z,34.30
2018-05-29T06:45:57.828Z,36.13
2018-05-29T06:48:24.119Z,36.73
2018-05-29T06:50:50.452Z,35.70
2018-05-29T06:53:16.750Z,35.07
2018-05-29T06:55:44.525Z,34.13
2018-05-29T06:58:10.807Z,31.57
2018-05-29T07:00:37.083Z,31.33
2018-05-29T07:03:04.109Z,32.40
2018-05-29T07:05:30.583Z,33.53
2018-05-29T07:07:56.887Z,31.50
2018-05-29T07:10:24.640Z,33.20
2018-05-29T07:12:50.924Z,33.07
2018-05-29T07:15:17.215Z,33.00
2018-05-29T07:17:43.507Z,32.57
2018-05-29T07:20:09.823Z,33.63
2018-05-29T07:22:36.106Z,34.63
2018-05-29T07:25:02.413Z,33.57
2018-05-29T07:27:28.701Z,32.93
2018-05-29T07:29:54.980Z,34.63
2018-05-29T07:32:21.247Z,32.60
2018-05-29T07:34:48.285Z,32.87
2018-05-29T07:37:14.591Z,34.93
2018-05-29T07:39:40.919Z,31.57
2018-05-29T07:42:07.269Z,34.93
2018-05-29T07:44:34.305Z,31.83
2018-05-29T07:47:00.575Z,35.37
2018-05-29T07:49:26.879Z,32.07
2018-05-29T07:51:53.906Z,31.00
2018-05-29T07:54:20.193Z,31.57
2018-05-29T07:56:46.478Z,31.60
2018-05-29T07:59:12.755Z,31.80
2018-05-29T08:01:39.041Z,33.08
2018-05-29T08:04:05.409Z,32.65
2018-05-29T08:06:33.886Z,35.30
2018-05-29T08:09:00.169Z,31.47
2018-05-29T08:11:27.231Z,35.58
2018-05-29T08:13:53.539Z,36.13
2018-05-29T08:16:20.640Z,34.50
2018-05-29T08:18:47.549Z,33.17
2018-05-29T08:21:13.834Z,30.75
2018-05-29T08:23:40.125Z,32.97
2018-05-29T08:26:06.427Z,29.17
2018-05-29T08:28:33.472Z,29.52
2018-05-29T08:30:59.804Z,32.92
2018-05-29T08:33:26.064Z,31.77
2018-05-29T08:35:52.369Z,29.95
2018-05-29T08:38:22.210Z,33.90
2018-05-29T08:40:48.520Z,33.05
2018-05-29T08:43:14.809Z,31.90
2018-05-29T08:45:41.096Z,33.40
2018-05-29T08:48:07.375Z,31.65
2018-05-29T08:50:33.687Z,33.63
2018-05-29T08:52:59.976Z,34.95
2018-05-29T08:55:26.263Z,36.45
2018-05-29T08:57:52.567Z,39.05
2018-05-29T09:00:18.863Z,39.92
2018-05-29T09:02:45.876Z,39.92
2018-05-29T09:05:12.179Z,39.30
2018-05-29T09:07:38.453Z,39.93
2018-05-29T09:10:05.512Z,38.80
2018-05-29T09:12:31.820Z,40.47
2018-05-29T09:14:58.120Z,37.40
2018-05-29T09:17:24.428Z,39.80
2018-05-29T09:19:50.743Z,38.55
2018-05-29T09:22:17.027Z,39.92
2018-05-29T09:24:43.329Z,39.67
2018-05-29T09:27:10.455Z,38.38
2018-05-29T09:29:36.804Z,39.75
2018-05-29T09:32:10.724Z,38.88
2018-05-29T09:34:43.724Z,36.53
2018-05-29T09:37:17.491Z,35.92
2018-05-29T09:39:53.883Z,37.50
2018-05-29T09:42:24.715Z,39.40
2018-05-29T09:44:51.343Z,40.25
2018-05-29T09:47:23.434Z,39.88
2018-05-29T09:49:54.727Z,39.97
2018-05-29T09:52:21.034Z,38.13
2018-05-29T09:54:48.519Z,41.75
2018-05-29T09:57:19.483Z,41.75
2018-05-29T10:02:18.431Z,41.42
2018-05-29T10:04:45.483Z,44.50
2018-05-29T10:07:11.832Z,43.97
2018-05-29T10:09:38.087Z,45.08
2018-05-29T10:12:04.368Z,43.38
2018-05-29T10:14:30.645Z,43.63
2018-05-29T10:16:56.954Z,44.85
2018-05-29T10:19:23.287Z,46.33
2018-05-29T10:21:49.554Z,42.08
2018-05-29T10:24:15.856Z,44.33
2018-05-29T10:26:42.135Z,48.83
2018-05-29T10:29:08.458Z,46.45
2018-05-29T10:31:34.749Z,45.30
2018-05-29T10:34:01.792Z,46.97
2018-05-29T10:36:28.895Z,44.83
2018-05-29T10:38:55.267Z,50.10
2018-05-29T10:41:22.315Z,45.97
2018-05-29T10:43:49.398Z,47.90
2018-05-29T10:46:15.685Z,54.35
2018-05-29T10:48:43.463Z,49.20
2018-05-29T10:51:09.748Z,47.97
2018-05-29T10:53:36.041Z,48.00
2018-05-29T10:56:02.348Z,48.75
2018-05-29T10:58:28.656Z,45.27
2018-05-29T11:00:54.960Z,49.67
2018-05-29T11:03:21.245Z,47.57
2018-05-29T11:05:47.563Z,51.63
2018-05-29T11:08:13.950Z,47.73
2018-05-29T11:10:40.238Z,47.77
2018-05-29T11:13:07.290Z,45.77
2018-05-29T11:15:34.337Z,47.63
2018-05-29T11:18:01.379Z,48.20
2018-05-29T11:20:28.482Z,48.87
2018-05-29T11:22:54.755Z,52.17
2018-05-29T11:25:21.800Z,48.60
2018-05-29T11:27:48.093Z,46.03
2018-05-29T11:30:14.388Z,46.57
2018-05-29T11:32:40.683Z,42.20
2018-05-29T11:35:06.968Z,51.60
2018-05-29T11:37:33.273Z,48.50
2018-05-29T11:39:59.544Z,47.23
2018-05-29T11:42:25.838Z,46.23
2018-05-29T11:44:52.159Z,45.70
2018-05-29T11:47:19.203Z,47.60
2018-05-29T11:49:46.250Z,43.90
2018-05-29T11:52:13.275Z,42.80
2018-05-29T11:54:39.585Z,42.87
2018-05-29T11:57:06.655Z,39.47
2018-05-29T11:59:32.988Z,35.87
2018-05-29T12:01:59.268Z,35.97
2018-05-29T12:04:25.544Z,33.53
2018-05-29T12:06:52.886Z,34.93
2018-05-29T12:09:19.162Z,31.20
2018-05-29T12:11:45.466Z,36.17
2018-05-29T12:14:12.525Z,33.40
2018-05-29T12:16:38.838Z,34.33
2018-05-29T12:19:05.155Z,33.17
2018-05-29T12:21:31.462Z,34.20
2018-05-29T12:23:57.762Z,34.30
2018-05-29T12:26:24.803Z,37.03
2018-05-29T12:28:51.879Z,33.37
2018-05-29T12:31:18.241Z,33.77
2018-05-29T12:33:44.537Z,32.00
2018-05-29T12:36:10.841Z,32.60
2018-05-29T12:38:37.875Z,30.30
2018-05-29T12:41:04.182Z,28.80
2018-05-29T12:43:30.592Z,23.03
2018-05-29T12:45:56.916Z,18.80
2018-05-29T12:48:23.216Z,16.50
2018-05-29T12:50:50.256Z,16.33
2018-05-29T12:53:19.202Z,14.90
2018-05-29T12:55:45.794Z,14.07
2018-05-29T12:58:13.603Z,14.53
2018-05-29T13:00:40.935Z,14.10
2018-05-29T13:03:09.132Z,14.20
2018-05-29T13:08:13.922Z,14.43
2018-05-29T13:10:41.365Z,15.23
2018-05-29T13:13:07.878Z,18.27
2018-05-29T13:15:34.176Z,18.60
2018-05-29T13:18:01.308Z,17.83
2018-05-29T13:20:28.343Z,17.50
2018-05-29T13:22:55.373Z,21.43
2018-05-29T13:25:21.679Z,19.40
2018-05-29T13:27:48.024Z,17.67
2018-05-29T13:30:14.311Z,16.03
2018-05-29T13:32:41.348Z,17.83
2018-05-29T13:35:08.396Z,15.80
2018-05-29T13:37:35.558Z,17.67
2018-05-29T13:40:02.863Z,21.10
2018-05-29T13:42:29.154Z,20.03
2018-05-29T13:44:55.799Z,17.70
2018-05-29T13:47:22.260Z,19.87
2018-05-29T13:49:48.584Z,21.43
2018-05-29T13:52:14.890Z,24.30
2018-05-29T13:54:41.164Z,23.90
2018-05-29T13:57:07.464Z,24.50
2018-05-29T13:59:33.758Z,23.90
2018-05-29T14:02:00.065Z,21.97
2018-05-29T14:04:26.344Z,22.63
2018-05-29T14:06:52.640Z,22.80
2018-05-29T14:09:19.633Z,22.80
2018-05-29T14:11:46.706Z,24.90
2018-05-29T14:14:13.057Z,23.93
2018-05-29T14:16:40.183Z,24.17
2018-05-29T14:19:11.912Z,24.10
2018-05-29T14:21:38.253Z,24.70
2018-05-29T14:24:04.564Z,24.33
2018-05-29T14:26:30.900Z,23.77
2018-05-29T14:28:57.230Z,25.37
2018-05-29T14:31:23.511Z,22.50
2018-05-29T14:33:49.809Z,22.47
2018-05-29T14:36:17.543Z,21.63
2018-05-29T14:38:44.244Z,20.60
2018-05-29T14:41:12.278Z,20.20
2018-05-29T14:43:38.743Z,20.47
2018-05-29T14:46:05.827Z,19.97
2018-05-29T14:48:32.933Z,20.53
2018-05-29T14:50:59.221Z,16.87
2018-05-29T14:53:32.604Z,15.17
2018-05-29T14:55:58.931Z,12.57
2018-05-29T14:58:25.991Z,11.07
2018-05-29T15:00:53.127Z,8.40
2018-05-29T15:03:19.717Z,7.20
2018-05-29T15:05:46.054Z,8.93
2018-05-29T15:08:12.605Z,8.03
2018-05-29T15:10:38.920Z,8.57
2018-05-29T15:13:06.080Z,6.63
2018-05-29T15:15:33.417Z,7.40
2018-05-29T15:27:45.421Z,8.53
2018-05-29T15:30:12.746Z,7.47
2018-05-29T15:32:41.637Z,9.50
2018-05-29T15:35:16.338Z,8.37
2018-05-29T15:37:50.131Z,8.10
2018-05-29T15:40:17.934Z,7.67
2018-05-29T15:42:44.551Z,5.77
2018-05-29T15:45:11.334Z,6.60
2018-05-29T15:47:39.594Z,7.60
2018-05-29T15:50:07.793Z,8.60
2018-05-29T15:52:35.093Z,8.23
2018-05-29T15:55:02.239Z,8.53
2018-05-29T15:57:33.915Z,7.43
2018-05-29T16:00:00.495Z,8.43
2018-05-29T16:02:26.953Z,6.23
2018-05-29T16:04:53.367Z,6.87
2018-05-29T16:07:20.461Z,5.93
2018-05-29T16:09:46.765Z,7.33
2018-05-29T16:12:13.794Z,7.10
2018-05-29T16:14:40.860Z,5.77
2018-05-29T16:17:07.265Z,5.03
2018-05-29T16:19:33.589Z,7.03
2018-05-29T16:21:59.913Z,6.87
2018-05-29T16:24:26.211Z,9.23
2018-05-29T16:26:52.566Z,5.07
2018-05-29T16:29:18.875Z,8.33
2018-05-29T16:31:45.194Z,4.93
2018-05-29T16:34:11.514Z,5.97
2018-05-29T16:36:38.005Z,6.00
2018-05-29T16:39:04.372Z,7.77
2018-05-29T16:41:30.655Z,7.63
2018-05-29T16:43:56.943Z,5.30
2018-05-29T16:46:23.609Z,6.83
2018-05-29T16:48:49.881Z,4.97
2018-05-29T16:51:16.203Z,8.67
2018-05-29T16:53:42.517Z,5.97
2018-05-29T16:56:09.570Z,9.47
2018-05-29T16:58:36.588Z,5.17
2018-05-29T17:01:03.007Z,7.00
2018-05-29T17:03:29.317Z,5.60
2018-05-29T17:05:55.617Z,6.07
2018-05-29T17:08:22.672Z,7.47
2018-05-29T17:10:48.978Z,4.77
2018-05-29T17:13:15.261Z,7.43
2018-05-29T17:15:41.555Z,8.50
2018-05-29T17:18:07.920Z,5.90
2018-05-29T17:20:34.252Z,6.37
2018-05-29T17:23:00.580Z,5.60
2018-05-29T17:25:26.878Z,7.10
2018-05-29T17:27:54.279Z,6.60
2018-05-29T17:30:20.581Z,5.37
2018-05-29T17:32:46.895Z,7.30
2018-05-29T17:35:13.954Z,5.63
2018-05-29T17:37:40.238Z,6.07
2018-05-29T17:40:06.551Z,6.17
2018-05-29T17:42:32.848Z,6.67
2018-05-29T17:44:59.939Z,6.57
2018-05-29T17:47:26.232Z,7.90
2018-05-29T17:49:52.613Z,5.70
2018-05-29T17:52:19.092Z,6.43
2018-05-29T17:54:45.489Z,6.33
2018-05-29T17:57:11.843Z,7.53
2018-05-29T17:59:38.973Z,8.70
2018-05-29T18:02:06.188Z,7.70
2018-05-29T18:04:32.525Z,7.43
2018-05-29T18:07:01.954Z,7.13
2018-05-29T18:09:28.278Z,8.77
2018-05-29T18:11:54.694Z,6.67
2018-05-29T18:14:21.088Z,6.53
2018-05-29T18:16:48.835Z,10.80
2018-05-29T18:19:15.236Z,8.87
2018-05-29T18:21:41.662Z,6.50
2018-05-29T18:24:08.004Z,6.33
2018-05-29T18:26:35.058Z,6.53
2018-05-29T18:29:01.484Z,6.07
2018-05-29T18:31:28.538Z,6.20
2018-05-29T18:33:54.965Z,7.97
2018-05-29T18:36:24.858Z,7.83
2018-05-29T18:38:51.265Z,5.90
2018-05-29T18:51:03.416Z,6.13
2018-05-29T18:53:30.555Z,6.83
2018-05-29T18:55:57.935Z,7.47
2018-05-29T18:58:25.123Z,8.83
2018-05-29T19:00:52.368Z,6.63
2018-05-29T19:03:18.773Z,8.17
2018-05-29T19:05:45.151Z,8.37
2018-05-29T19:17:56.511Z,7.10
2018-05-29T19:20:22.933Z,7.20
2018-05-29T19:22:50.539Z,7.17
2018-05-29T19:25:16.911Z,7.97
2018-05-29T19:27:44.471Z,8.83
2018-05-29T19:30:10.813Z,8.23
2018-05-29T19:32:37.233Z,7.10
2018-05-29T19:35:03.673Z,7.13
2018-05-29T19:37:30.821Z,6.93
2018-05-29T19:39:57.261Z,7.63
2018-05-29T19:42:23.797Z,7.23
2018-05-29T19:44:50.176Z,6.60
2018-05-29T19:47:17.063Z,8.57
2018-05-29T19:49:44.053Z,8.00
2018-05-29T19:52:10.588Z,9.53
2018-05-29T19:54:37.003Z,9.73
2018-05-29T19:57:04.330Z,7.53
2018-05-29T19:59:30.690Z,6.80
2018-05-29T20:01:57.037Z,9.00
2018-05-29T20:04:23.403Z,6.80
2018-05-29T20:06:50.680Z,8.37
2018-05-29T20:09:17.842Z,8.07
2018-05-29T20:11:44.271Z,9.27
2018-05-29T20:14:10.632Z,7.83
2018-05-29T20:16:37.090Z,6.57
2018-05-29T20:19:04.251Z,8.50
2018-05-29T20:21:32.305Z,8.07
2018-05-29T20:23:59.429Z,7.10
2018-05-29T20:26:32.356Z,8.60
2018-05-29T20:28:59.429Z,8.33
2018-05-29T20:31:25.862Z,8.03
2018-05-29T20:33:53.691Z,7.77
2018-05-29T20:36:20.817Z,7.57
2018-05-29T20:38:47.249Z,8.63
2018-05-29T20:41:13.633Z,8.17
2018-05-29T20:43:41.072Z,8.63
2018-05-29T20:46:07.661Z,8.43
2018-05-29T20:48:33.976Z,10.80
2018-05-29T20:51:00.311Z,10.20
2018-05-29T20:53:26.720Z,10.40
2018-05-29T20:55:53.079Z,8.30
2018-05-29T20:58:19.428Z,9.07
2018-05-29T21:00:46.649Z,8.57
2018-05-29T21:03:13.927Z,7.70
2018-05-29T21:05:40.281Z,9.57
2018-05-29T21:08:06.643Z,9.83
2018-05-29T21:10:33.015Z,10.13
2018-05-29T21:12:59.371Z,10.63
2018-05-29T21:15:26.753Z,11.13
2018-05-29T21:17:53.112Z,9.70
2018-05-29T21:20:19.453Z,10.53
2018-05-29T21:22:45.793Z,9.17
2018-05-29T21:25:12.151Z,9.37
2018-05-29T21:27:39.235Z,8.43
2018-05-29T21:30:05.615Z,9.13
2018-05-29T21:32:31.961Z,9.33
2018-05-29T21:35:00.095Z,9.80
2018-05-29T21:37:26.493Z,9.17
2018-05-29T21:39:52.803Z,9.83
2018-05-29T21:42:19.140Z,11.07
2018-05-29T21:44:46.236Z,9.00
2018-05-29T21:47:12.570Z,9.70
2018-05-29T21:49:38.942Z,11.33
2018-05-29T21:52:06.011Z,10.37
2018-05-29T21:54:32.316Z,10.47
2018-05-29T21:56:59.411Z,8.90
2018-05-29T21:59:26.512Z,13.43
2018-05-29T22:01:52.886Z,9.03
2018-05-29T22:04:19.240Z,9.77
2018-05-29T22:06:45.569Z,10.77
2018-05-29T22:09:11.912Z,9.63
2018-05-29T22:11:38.300Z,10.53
2018-05-29T22:14:04.687Z,9.10
2018-05-29T22:16:31.017Z,10.17
2018-05-29T22:18:57.385Z,11.10
2018-05-29T22:21:23.754Z,10.30
2018-05-29T22:23:50.152Z,9.43
2018-05-29T22:26:17.233Z,8.90
2018-05-29T22:28:43.551Z,10.17
2018-05-29T22:31:09.943Z,13.73
2018-05-29T22:33:36.276Z,10.27
2018-05-29T22:36:02.668Z,9.67
2018-05-29T22:38:28.988Z,9.53
2018-05-29T22:40:55.364Z,9.60
2018-05-29T22:43:22.449Z,12.30
2018-05-29T22:45:48.767Z,10.47
2018-05-29T22:48:15.840Z,10.10
2018-05-29T22:50:42.235Z,12.70
2018-05-29T22:53:09.044Z,12.03
2018-05-29T22:55:35.422Z,10.73
2018-05-29T22:58:02.504Z,11.47
2018-05-29T23:00:28.935Z,10.23
2018-05-29T23:02:55.350Z,12.50
2018-05-29T23:05:21.696Z,11.20
2018-05-29T23:07:48.027Z,12.47
2018-05-29T23:10:14.383Z,12.03
2018-05-29T23:12:40.781Z,12.77
2018-05-29T23:15:07.119Z,12.00
2018-05-29T23:17:33.472Z,12.70
2018-05-29T23:19:59.823Z,12.17
2018-05-29T23:22:26.227Z,12.60
2018-05-29T23:24:52.538Z,12.57
2018-05-29T23:27:19.900Z,12.03
2018-05-29T23:29:46.257Z,15.33
2018-05-29T23:32:12.611Z,13.03
2018-05-29T23:34:39.996Z,13.87
2018-05-29T23:37:07.317Z,16.43
2018-05-29T23:39:33.643Z,14.43
2018-05-29T23:42:00.004Z,13.80
2018-05-29T23:44:26.305Z,14.17
2018-05-29T23:46:53.268Z,16.10
2018-05-29T23:49:21.090Z,13.43
2018-05-29T23:51:47.433Z,13.80
2018-05-29T23:54:14.381Z,15.07
2018-05-29T23:56:40.745Z,17.13
2018-05-29T23:59:07.050Z,15.30
